createdAt,value
2023-01-13T00:00:12.901Z,100119.75
2023-01-13T00:02:43.895Z,100109.97
2023-01-13T00:05:14.173Z,100122.41
2023-01-13T00:07:44.438Z,100127.84
2023-01-13T00:10:14.773Z,100126.66
2023-01-13T00:12:44.597Z,100130.94
2023-01-13T00:15:15.080Z,100143.44
2023-01-13T00:17:46.549Z,100138.91
2023-01-13T00:20:18.961Z,100109.41
2023-01-13T00:22:48.556Z,100137.84
2023-01-13T00:25:18.682Z,100142.34
2023-01-13T00:27:49.437Z,100134.09
2023-01-13T00:30:23.116Z,100042.19
2023-01-13T00:32:54.369Z,100118.00
2023-01-13T00:35:24.060Z,100110.97
2023-01-13T00:37:55.575Z,100113.28
2023-01-13T00:40:25.428Z,100086.03
2023-01-13T00:43:12.844Z,100097.63
2023-01-13T00:45:43.220Z,100093.59
2023-01-13T00:48:14.915Z,100101.66
2023-01-13T00:50:45.776Z,100099.53
2023-01-13T00:53:17.663Z,100103.88
2023-01-13T00:55:47.635Z,100102.81
2023-01-13T00:58:18.595Z,100088.97
2023-01-13T01:00:49.517Z,100085.72
2023-01-13T01:03:22.848Z,100073.44
2023-01-13T01:05:56.818Z,100059.59
2023-01-13T01:08:26.347Z,100066.59
2023-01-13T01:11:03.410Z,100040.06
2023-01-13T01:13:34.247Z,100073.75
2023-01-13T01:16:07.661Z,100078.03
2023-01-13T01:18:41.760Z,100071.75
2023-01-13T01:21:12.363Z,100085.88
2023-01-13T01:23:42.779Z,100090.75
2023-01-13T01:26:14.778Z,100090.72
2023-01-13T01:28:45.193Z,100087.47
2023-01-13T01:31:17.085Z,100087.56
2023-01-13T01:33:48.668Z,100088.47
2023-01-13T01:36:23.499Z,100094.94
2023-01-13T01:38:53.784Z,100076.50
2023-01-13T01:41:26.148Z,100087.41
2023-01-13T01:44:00.665Z,100064.91
2023-01-13T01:46:33.761Z,100078.31
2023-01-13T01:49:09.077Z,100070.00
2023-01-13T01:51:43.246Z,100067.56
2023-01-13T01:54:17.474Z,100060.25
2023-01-13T01:56:48.541Z,100068.38
2023-01-13T01:59:19.577Z,100069.13
2023-01-13T02:01:50.833Z,100060.81
2023-01-13T02:04:27.849Z,100074.81
2023-01-13T02:06:59.049Z,100064.78
2023-01-13T02:09:28.645Z,100066.75
2023-01-13T02:12:27.343Z,100052.31
2023-01-13T02:14:58.220Z,100055.09
2023-01-13T02:17:41.038Z,99939.88
2023-01-13T02:20:41.006Z,100043.56
2023-01-13T02:24:07.231Z,100050.34
2023-01-13T02:27:15.186Z,100045.00
2023-01-13T02:30:23.639Z,100042.66
2023-01-13T02:33:08.233Z,100046.31
2023-01-13T02:35:46.836Z,100050.44
2023-01-13T02:38:26.601Z,100039.38
2023-01-13T02:41:22.317Z,100044.34
2023-01-13T02:44:08.426Z,100046.16
2023-01-13T02:46:47.084Z,99972.69
2023-01-13T02:49:25.214Z,100048.91
2023-01-13T02:52:00.517Z,100025.25
2023-01-13T02:54:31.847Z,100045.56
2023-01-13T02:57:04.511Z,100026.94
2023-01-13T02:59:35.852Z,100051.16
2023-01-13T03:02:13.140Z,100047.13
2023-01-13T03:04:52.463Z,100043.38
2023-01-13T03:07:46.699Z,100047.50
2023-01-13T03:10:28.906Z,100032.75
2023-01-13T03:13:09.578Z,100041.25
2023-01-13T03:15:49.645Z,100039.81
2023-01-13T03:18:34.759Z,100051.44
2023-01-13T03:21:09.459Z,100055.44
2023-01-13T03:23:50.599Z,100049.72
2023-01-13T03:26:28.595Z,100037.09
2023-01-13T03:29:03.584Z,100037.09
2023-01-13T03:31:36.079Z,100025.84
2023-01-13T03:34:13.142Z,100029.91
2023-01-13T03:36:45.783Z,100029.69
2023-01-13T03:39:25.243Z,100017.22
2023-01-13T03:42:00.168Z,100010.25
2023-01-13T03:44:34.021Z,100027.00
2023-01-13T03:47:12.494Z,99923.63
2023-01-13T03:49:49.791Z,100031.06
2023-01-13T03:52:26.511Z,100022.81
2023-01-13T03:55:02.547Z,100028.31
2023-01-13T03:57:36.725Z,100023.28
2023-01-13T04:00:10.724Z,100037.00
2023-01-13T04:02:50.667Z,100028.53
2023-01-13T04:05:26.167Z,100028.00
2023-01-13T04:08:04.031Z,100027.16
2023-01-13T04:10:39.720Z,100004.69
2023-01-13T04:13:13.697Z,100047.00
2023-01-13T04:15:46.873Z,100028.22
2023-01-13T04:18:19.195Z,100029.38
2023-01-13T04:20:52.495Z,100022.53
2023-01-13T04:23:23.723Z,100030.00
2023-01-13T04:25:53.984Z,100016.75
2023-01-13T04:28:25.097Z,100011.41
2023-01-13T04:30:55.828Z,100024.25
2023-01-13T04:33:26.452Z,100013.53
2023-01-13T04:36:00.824Z,100023.31
2023-01-13T04:38:33.366Z,100043.88
2023-01-13T04:41:03.336Z,100030.75
2023-01-13T04:43:33.496Z,100024.84
2023-01-13T04:46:03.732Z,100034.41
2023-01-13T04:48:33.387Z,100032.97
2023-01-13T04:51:04.833Z,100017.97
2023-01-13T04:53:34.955Z,100048.44
2023-01-13T04:56:05.426Z,100047.19
2023-01-13T04:58:34.985Z,100036.41
2023-01-13T05:01:05.824Z,100034.66
2023-01-13T05:03:36.165Z,99920.22
2023-01-13T05:06:07.802Z,100035.72
2023-01-13T05:08:39.948Z,100037.69
2023-01-13T05:11:23.766Z,100007.59
2023-01-13T05:14:13.290Z,99980.53
2023-01-13T05:17:00.513Z,100031.44
2023-01-13T05:19:32.296Z,100026.03
2023-01-13T05:22:26.655Z,100028.13
2023-01-13T05:25:14.675Z,100028.84
2023-01-13T05:27:44.234Z,100033.88
2023-01-13T05:30:14.577Z,100050.75
2023-01-13T05:32:46.583Z,100039.00
2023-01-13T05:35:17.740Z,100033.34
2023-01-13T05:37:49.384Z,100047.00
2023-01-13T05:40:40.334Z,100044.03
2023-01-13T05:43:21.667Z,100046.41
2023-01-13T05:45:58.703Z,100042.50
2023-01-13T05:48:31.879Z,100039.44
2023-01-13T05:51:01.718Z,99922.75
2023-01-13T05:53:34.879Z,100059.91
2023-01-13T05:56:06.833Z,100065.50
2023-01-13T05:58:37.115Z,100061.41
2023-01-13T06:01:10.105Z,100058.06
2023-01-13T06:03:40.113Z,100056.31
2023-01-13T06:06:10.354Z,100068.34
2023-01-13T06:08:41.670Z,100057.38
2023-01-13T06:11:12.192Z,100067.19
2023-01-13T06:13:42.261Z,100051.81
2023-01-13T06:16:12.214Z,100042.56
2023-01-13T06:18:43.679Z,100053.09
2023-01-13T06:21:14.344Z,100068.91
2023-01-13T06:23:46.124Z,100067.78
2023-01-13T06:26:20.207Z,100062.03
2023-01-13T06:28:50.147Z,100071.00
2023-01-13T06:31:19.532Z,100076.16
2023-01-13T06:33:51.996Z,100078.56
2023-01-13T06:36:23.760Z,100074.97
2023-01-13T06:38:58.179Z,100076.47
2023-01-13T06:41:42.899Z,100080.19
2023-01-13T06:44:12.809Z,100078.56
2023-01-13T06:46:42.078Z,100077.47
2023-01-13T06:49:11.016Z,100070.06
2023-01-13T06:51:40.504Z,100071.75
2023-01-13T06:54:13.258Z,100074.28
2023-01-13T06:56:42.351Z,100068.56
2023-01-13T06:59:11.221Z,100076.66
2023-01-13T07:01:42.375Z,100069.44
2023-01-13T07:04:14.186Z,100088.22
2023-01-13T07:06:44.228Z,100073.53
2023-01-13T07:09:14.632Z,100066.09
2023-01-13T07:11:43.651Z,100083.94
2023-01-13T07:14:30.606Z,100053.53
2023-01-13T07:16:59.550Z,100085.50
2023-01-13T07:19:28.510Z,100087.91
2023-01-13T07:21:57.535Z,100074.03
2023-01-13T07:24:28.363Z,100087.78
2023-01-13T07:26:57.716Z,100096.03
2023-01-13T07:29:29.680Z,100088.66
2023-01-13T07:31:59.788Z,100084.28
2023-01-13T07:34:29.575Z,100096.75
2023-01-13T07:36:59.401Z,100093.84
2023-01-13T07:39:30.863Z,100092.03
2023-01-13T07:42:17.049Z,100096.53
2023-01-13T07:44:46.551Z,100116.78
2023-01-13T07:47:15.270Z,100098.91
2023-01-13T07:49:44.379Z,100107.59
2023-01-13T07:52:13.551Z,100105.16
2023-01-13T07:54:43.942Z,100110.94
2023-01-13T07:57:13.180Z,100112.84
2023-01-13T07:59:41.981Z,100127.44
2023-01-13T08:02:13.270Z,100122.47
2023-01-13T08:04:42.692Z,100145.06
2023-01-13T08:07:12.114Z,100137.38
2023-01-13T08:09:40.958Z,100121.44
2023-01-13T08:12:28.732Z,100139.06
2023-01-13T08:14:57.596Z,100129.44
2023-01-13T08:17:26.465Z,100152.72
2023-01-13T08:19:55.489Z,100162.34
2023-01-13T08:22:26.847Z,100151.88
2023-01-13T08:24:56.624Z,100130.81
2023-01-13T08:27:26.940Z,100141.88
2023-01-13T08:29:55.873Z,100162.66
2023-01-13T08:32:24.883Z,100126.53
2023-01-13T08:34:53.737Z,100158.41
2023-01-13T08:37:22.530Z,100152.91
2023-01-13T08:39:51.373Z,100146.66
2023-01-13T08:42:20.930Z,100158.78
2023-01-13T08:44:54.385Z,100169.69
2023-01-13T08:47:23.227Z,100162.25
2023-01-13T08:49:54.532Z,100156.88
2023-01-13T08:52:23.779Z,100158.53
2023-01-13T08:54:55.969Z,100153.66
2023-01-13T08:57:24.885Z,100177.31
2023-01-13T08:59:57.625Z,100166.47
2023-01-13T09:02:27.899Z,100182.69
2023-01-13T09:04:58.084Z,100192.88
2023-01-13T09:07:27.493Z,100070.28
2023-01-13T09:09:57.151Z,100204.47
2023-01-13T09:12:44.155Z,100196.53
2023-01-13T09:15:18.458Z,100204.16
2023-01-13T09:17:48.272Z,100226.59
2023-01-13T09:20:17.257Z,100200.13
2023-01-13T09:22:46.430Z,100216.72
2023-01-13T09:25:15.436Z,100222.31
2023-01-13T09:27:44.647Z,100211.97
2023-01-13T09:30:15.902Z,100217.63
2023-01-13T09:32:45.192Z,100215.88
2023-01-13T09:35:13.997Z,100221.91
2023-01-13T09:37:43.277Z,100216.19
2023-01-13T09:40:19.493Z,100230.28
2023-01-13T09:43:11.788Z,100190.41
2023-01-13T09:45:47.998Z,100226.56
2023-01-13T09:48:23.753Z,100246.03
2023-01-13T09:51:01.930Z,100247.88
2023-01-13T09:53:35.679Z,100252.91
2023-01-13T09:56:04.956Z,100259.19
2023-01-13T09:58:34.948Z,100256.41
2023-01-13T10:01:17.515Z,100257.25
2023-01-13T10:03:49.493Z,100252.06
2023-01-13T10:06:22.494Z,100242.31
2023-01-13T10:08:52.301Z,100256.66
2023-01-13T10:11:38.117Z,100253.75
2023-01-13T10:14:14.841Z,100281.13
2023-01-13T10:16:52.465Z,100277.69
2023-01-13T10:19:27.676Z,100284.56
2023-01-13T10:22:19.155Z,100304.47
2023-01-13T10:25:09.952Z,100291.22
2023-01-13T10:27:40.494Z,100296.03
2023-01-13T10:30:14.514Z,100302.97
2023-01-13T10:32:49.007Z,100288.59
2023-01-13T10:35:18.510Z,100305.50
2023-01-13T10:37:59.064Z,100291.50
2023-01-13T10:40:28.793Z,100329.69
2023-01-13T10:43:07.346Z,100328.22
2023-01-13T10:45:37.533Z,100317.47
2023-01-13T10:48:15.446Z,100348.78
2023-01-13T10:50:48.416Z,100322.53
2023-01-13T10:53:20.328Z,100328.50
2023-01-13T10:56:02.853Z,100336.13
2023-01-13T10:58:31.967Z,100362.25
2023-01-13T11:01:03.163Z,100334.13
2023-01-13T11:03:41.805Z,100337.66
2023-01-13T11:06:22.203Z,100343.53
2023-01-13T11:08:55.623Z,100337.13
2023-01-13T11:11:40.329Z,100346.72
2023-01-13T11:14:34.983Z,100346.13
2023-01-13T11:17:11.874Z,100324.25
2023-01-13T11:19:49.049Z,100347.53
2023-01-13T11:22:22.783Z,100353.47
2023-01-13T11:24:56.769Z,100233.22
2023-01-13T11:27:39.508Z,100366.75
2023-01-13T11:30:18.929Z,100376.16
2023-01-13T11:33:01.071Z,100387.88
2023-01-13T11:35:35.633Z,100352.03
2023-01-13T11:38:13.861Z,100361.78
2023-01-13T11:40:47.742Z,100366.25
2023-01-13T11:43:27.755Z,100375.56
2023-01-13T11:45:59.695Z,100360.66
2023-01-13T11:48:32.298Z,100372.66
2023-01-13T11:51:05.028Z,100408.38
2023-01-13T11:54:02.528Z,100389.53
2023-01-13T11:56:57.167Z,100390.47
2023-01-13T11:59:53.757Z,100402.91
2023-01-13T12:02:41.505Z,100402.75
2023-01-13T12:05:20.359Z,100405.72
2023-01-13T12:08:00.562Z,100404.69
2023-01-13T12:10:44.641Z,100411.78
2023-01-13T12:13:25.631Z,100417.88
2023-01-13T12:16:06.023Z,100406.72
2023-01-13T12:19:11.393Z,100406.97
2023-01-13T12:21:58.429Z,100421.16
2023-01-13T12:24:33.083Z,100426.31
2023-01-13T12:27:11.979Z,100442.47
2023-01-13T12:29:41.157Z,100422.91
2023-01-13T12:32:15.903Z,100426.41
2023-01-13T12:34:57.345Z,100428.28
2023-01-13T12:37:35.223Z,100419.84
2023-01-13T12:40:27.611Z,100439.91
2023-01-13T12:43:22.948Z,100421.22
2023-01-13T12:45:52.465Z,100442.31
2023-01-13T12:48:49.219Z,100456.06
2023-01-13T12:51:26.956Z,100452.78
2023-01-13T12:53:59.123Z,100459.56
2023-01-13T12:56:45.849Z,100467.38
2023-01-13T12:59:51.554Z,100471.22
2023-01-13T13:02:39.898Z,100476.41
2023-01-13T13:05:52.714Z,100486.53
2023-01-13T13:08:32.701Z,100502.75
2023-01-13T13:11:35.503Z,100501.47
2023-01-13T13:14:07.931Z,100509.41
2023-01-13T13:16:49.817Z,100486.25
2023-01-13T13:19:45.374Z,100518.66
2023-01-13T13:22:47.119Z,100518.97
2023-01-13T13:25:28.097Z,100519.66
2023-01-13T13:28:20.270Z,100535.81
2023-01-13T13:31:03.810Z,100538.81
2023-01-13T13:33:51.753Z,100542.69
2023-01-13T13:36:42.497Z,100521.28
2023-01-13T13:39:40.068Z,100528.53
2023-01-13T13:42:33.079Z,100541.00
2023-01-13T13:45:34.649Z,100533.69
2023-01-13T13:48:27.069Z,100563.81
2023-01-13T13:51:00.516Z,100562.47
2023-01-13T13:53:35.790Z,100565.63
2023-01-13T13:56:16.024Z,100558.88
2023-01-13T13:58:45.436Z,100558.69
2023-01-13T14:01:22.930Z,100582.25
2023-01-13T14:04:07.416Z,100591.41
2023-01-13T14:06:36.489Z,100583.69
2023-01-13T14:09:05.634Z,100606.28
2023-01-13T14:11:38.453Z,100597.97
2023-01-13T14:14:14.001Z,100620.59
2023-01-13T14:16:43.903Z,100605.38
2023-01-13T14:19:27.735Z,100598.63
2023-01-13T14:21:57.554Z,100613.66
2023-01-13T14:24:27.416Z,100614.00
2023-01-13T14:27:09.546Z,100626.34
2023-01-13T14:29:38.777Z,100599.59
2023-01-13T14:32:09.231Z,100637.88
2023-01-13T14:34:40.617Z,100637.94
2023-01-13T14:37:25.486Z,100622.78
2023-01-13T14:39:56.012Z,100640.59
2023-01-13T14:42:25.505Z,100615.19
2023-01-13T14:44:56.332Z,100512.91
2023-01-13T14:47:28.266Z,100648.50
2023-01-13T14:50:03.000Z,100645.44
2023-01-13T14:52:36.921Z,100655.69
2023-01-13T14:55:25.228Z,100665.78
2023-01-13T14:57:54.357Z,100627.03
2023-01-13T15:00:26.772Z,100676.56
2023-01-13T15:03:08.469Z,100669.63
2023-01-13T15:05:47.769Z,100682.19
2023-01-13T15:08:40.889Z,100699.28
2023-01-13T15:11:25.021Z,100664.53
2023-01-13T15:14:02.581Z,100698.25
2023-01-13T15:16:34.960Z,100704.56
2023-01-13T15:19:05.036Z,100687.66
2023-01-13T15:21:37.795Z,100718.25
2023-01-13T15:24:10.295Z,100720.91
2023-01-13T15:26:39.877Z,100734.09
2023-01-13T15:29:14.525Z,100606.03
2023-01-13T15:31:46.144Z,100735.97
2023-01-13T15:34:15.192Z,100747.28
2023-01-13T15:36:45.833Z,100748.06
2023-01-13T15:39:15.436Z,100753.81
2023-01-13T15:42:02.301Z,100758.72
2023-01-13T15:44:48.776Z,100758.41
2023-01-13T15:47:18.043Z,100639.66
2023-01-13T15:49:47.987Z,100787.59
2023-01-13T15:52:22.215Z,100752.94
2023-01-13T15:54:51.808Z,100786.69
2023-01-13T15:57:24.548Z,100773.00
2023-01-13T15:59:57.833Z,100786.81
2023-01-13T16:02:27.078Z,100797.13
2023-01-13T16:04:56.968Z,100790.72
2023-01-13T16:07:27.902Z,100803.19
2023-01-13T16:09:56.924Z,100808.56
2023-01-13T16:12:25.873Z,100808.94
2023-01-13T16:14:56.024Z,100808.38
2023-01-13T16:17:29.795Z,100807.47
2023-01-13T16:19:59.894Z,100824.34
2023-01-13T16:22:30.434Z,100826.41
2023-01-13T16:25:00.233Z,100804.59
2023-01-13T16:27:28.949Z,100836.19
2023-01-13T16:29:58.299Z,100847.84
2023-01-13T16:32:27.821Z,100855.53
2023-01-13T16:34:58.330Z,100870.78
2023-01-13T16:37:31.161Z,100869.13
2023-01-13T16:40:01.444Z,100859.69
2023-01-13T16:42:31.713Z,100873.34
2023-01-13T16:45:07.329Z,100865.09
2023-01-13T16:47:37.615Z,100740.88
2023-01-13T16:50:07.754Z,100881.00
2023-01-13T16:52:38.706Z,100883.16
2023-01-13T16:55:07.728Z,100878.94
2023-01-13T16:57:39.312Z,100862.16
2023-01-13T17:00:10.876Z,100931.97
2023-01-13T17:02:40.894Z,100883.47
2023-01-13T17:05:15.651Z,100896.28
2023-01-13T17:07:47.851Z,100877.44
2023-01-13T17:10:19.008Z,100888.75
2023-01-13T17:12:49.003Z,100893.72
2023-01-13T17:15:20.811Z,100897.34
2023-01-13T17:17:52.334Z,100889.75
2023-01-13T17:20:23.844Z,100903.50
2023-01-13T17:22:58.761Z,100908.56
2023-01-13T17:25:28.559Z,100899.00
2023-01-13T17:28:02.191Z,100905.84
2023-01-13T17:30:31.398Z,100908.25
2023-01-13T17:33:00.779Z,100896.09
2023-01-13T17:35:30.557Z,100911.41
2023-01-13T17:38:04.007Z,100917.44
2023-01-13T17:40:33.157Z,100913.84
2023-01-13T17:43:03.276Z,100919.63
2023-01-13T17:45:34.294Z,100920.34
2023-01-13T17:48:06.340Z,100920.00
2023-01-13T17:50:40.054Z,100926.78
2023-01-13T17:53:11.448Z,100942.50
2023-01-13T17:55:40.680Z,100807.19
2023-01-13T17:58:10.054Z,100932.53
2023-01-13T18:00:38.864Z,100922.09
2023-01-13T18:03:08.143Z,100946.34
2023-01-13T18:05:37.836Z,100958.13
2023-01-13T18:08:07.671Z,100958.44
2023-01-13T18:10:38.640Z,100943.22
2023-01-13T18:13:09.640Z,100953.03
2023-01-13T18:15:38.912Z,100972.97
2023-01-13T18:18:07.916Z,100950.28
2023-01-13T18:20:54.446Z,100954.59
2023-01-13T18:23:41.074Z,100967.03
2023-01-13T18:26:36.196Z,100833.69
2023-01-13T18:29:05.539Z,100968.03
2023-01-13T18:31:35.151Z,100963.13
2023-01-13T18:34:04.507Z,100980.00
2023-01-13T18:36:33.604Z,100992.50
2023-01-13T18:39:03.533Z,100990.41
2023-01-13T18:41:51.288Z,100981.63
2023-01-13T18:44:21.429Z,100970.13
2023-01-13T18:46:53.576Z,101004.88
2023-01-13T18:49:23.132Z,101000.78
2023-01-13T18:51:52.513Z,101004.09
2023-01-13T18:54:21.793Z,101019.03
2023-01-13T18:56:54.521Z,101019.31
2023-01-13T18:59:25.109Z,100901.59
2023-01-13T19:01:54.689Z,101027.41
2023-01-13T19:04:27.369Z,101046.56
2023-01-13T19:07:01.170Z,101026.19
2023-01-13T19:09:32.595Z,101047.34
2023-01-13T19:12:06.141Z,101045.97
2023-01-13T19:14:37.615Z,101052.38
2023-01-13T19:17:09.742Z,101027.56
2023-01-13T19:19:43.788Z,101063.16
2023-01-13T19:22:15.144Z,101066.72
2023-01-13T19:24:47.361Z,101057.09
2023-01-13T19:27:19.771Z,101046.22
2023-01-13T19:29:52.516Z,101018.44
2023-01-13T19:32:22.914Z,101059.78
2023-01-13T19:34:53.609Z,100936.91
2023-01-13T19:37:23.167Z,101082.06
2023-01-13T19:39:52.277Z,101091.44
2023-01-13T19:42:45.847Z,101090.94
2023-01-13T19:45:30.683Z,101072.25
2023-01-13T19:48:02.415Z,101085.09
2023-01-13T19:50:31.549Z,101087.78
2023-01-13T19:53:01.461Z,101034.94
2023-01-13T19:55:32.178Z,101105.59
2023-01-13T19:58:03.719Z,101092.34
2023-01-13T20:00:33.662Z,101104.31
2023-01-13T20:03:08.098Z,101117.41
2023-01-13T20:05:37.946Z,101104.59
2023-01-13T20:08:07.777Z,101102.31
2023-01-13T20:10:37.624Z,101099.72
2023-01-13T20:13:09.012Z,100969.78
2023-01-13T20:15:39.367Z,101111.72
2023-01-13T20:18:09.797Z,101108.28
2023-01-13T20:20:39.085Z,101120.22
2023-01-13T20:23:08.761Z,101104.03
2023-01-13T20:25:38.003Z,101138.53
2023-01-13T20:28:09.082Z,101150.75
2023-01-13T20:30:41.737Z,101148.72
2023-01-13T20:33:11.075Z,101155.75
2023-01-13T20:35:40.318Z,101165.84
2023-01-13T20:38:10.040Z,101028.13
2023-01-13T20:40:39.257Z,101167.13
2023-01-13T20:43:09.214Z,101176.03
2023-01-13T20:45:40.612Z,101177.50
2023-01-13T20:48:09.688Z,101182.91
2023-01-13T20:50:39.165Z,101175.91
2023-01-13T20:53:08.399Z,101178.78
2023-01-13T20:55:40.132Z,101179.75
2023-01-13T20:58:10.485Z,101171.38
2023-01-13T21:00:39.383Z,101181.13
2023-01-13T21:03:08.776Z,101194.44
2023-01-13T21:05:38.325Z,101183.66
2023-01-13T21:08:07.452Z,101194.03
2023-01-13T21:10:36.590Z,101193.41
2023-01-13T21:13:23.867Z,101199.88
2023-01-13T21:15:57.070Z,101188.13
2023-01-13T21:18:43.988Z,101188.09
2023-01-13T21:21:14.389Z,101181.50
2023-01-13T21:23:53.311Z,101197.06
2023-01-13T21:26:24.628Z,101186.16
2023-01-13T21:28:59.187Z,101192.75
2023-01-13T21:31:31.874Z,101196.47
2023-01-13T21:34:01.911Z,101190.88
2023-01-13T21:36:32.423Z,101191.22
2023-01-13T21:39:03.046Z,101176.78
2023-01-13T21:41:52.820Z,101194.78
2023-01-13T21:44:40.687Z,101210.00
2023-01-13T21:47:34.916Z,101206.19
2023-01-13T21:50:05.919Z,101209.06
2023-01-13T21:52:34.851Z,101211.66
2023-01-13T21:55:25.786Z,101233.78
2023-01-13T21:57:57.206Z,101225.28
2023-01-13T22:00:31.932Z,101230.00
2023-01-13T22:03:04.474Z,101234.47
2023-01-13T22:05:35.732Z,101239.97
2023-01-13T22:08:07.360Z,101234.75
2023-01-13T22:10:58.322Z,101239.28
2023-01-13T22:13:47.724Z,101249.19
2023-01-13T22:16:19.340Z,101261.06
2023-01-13T22:18:50.410Z,101267.25
2023-01-13T22:21:20.898Z,101250.91
2023-01-13T22:23:51.044Z,101255.00
2023-01-13T22:26:21.067Z,101269.09
2023-01-13T22:28:52.204Z,101238.31
2023-01-13T22:31:24.769Z,101262.28
2023-01-13T22:33:57.106Z,101254.00
2023-01-13T22:36:27.074Z,101265.28
2023-01-13T22:38:57.646Z,101250.22
2023-01-13T22:41:27.314Z,101244.38
2023-01-13T22:43:57.309Z,101268.50
2023-01-13T22:46:27.800Z,101261.59
2023-01-13T22:49:00.831Z,101287.75
2023-01-13T22:51:31.966Z,101271.75
2023-01-13T22:54:01.842Z,101272.22
2023-01-13T22:56:31.868Z,101265.31
2023-01-13T22:59:03.614Z,101275.25
2023-01-13T23:01:34.825Z,101275.09
2023-01-13T23:04:06.550Z,101266.53
2023-01-13T23:06:41.455Z,101264.19
2023-01-13T23:09:11.529Z,101265.28
2023-01-13T23:11:42.722Z,101254.94
2023-01-13T23:14:14.375Z,101250.66
2023-01-13T23:16:44.238Z,101188.78
2023-01-13T23:19:17.598Z,101273.25
2023-01-13T23:21:47.626Z,101248.41
2023-01-13T23:24:18.117Z,101250.38
2023-01-13T23:26:48.087Z,101250.16
2023-01-13T23:29:18.443Z,101246.00
2023-01-13T23:31:48.863Z,101244.00
2023-01-13T23:34:19.690Z,101244.91
2023-01-13T23:36:49.509Z,101248.44
2023-01-13T23:39:19.638Z,101249.94
2023-01-13T23:41:52.710Z,101257.03
2023-01-13T23:44:22.793Z,101250.91
2023-01-13T23:46:52.982Z,101251.91
2023-01-13T23:49:24.268Z,101262.28
2023-01-13T23:51:54.491Z,101260.47
2023-01-13T23:54:24.779Z,101266.06
2023-01-13T23:56:55.163Z,101261.56
2023-01-13T23:59:27.211Z,101263.66
